This is the latest recevied weather packets stored in our database for station/object KC1TWD. If no packets are shown the sender has not sent any weather packets the latest 10 day(s).
| Time | Temp. | Humidity | Pressure | Rain* | Wind** | Luminosity | Snow |
|---|---|---|---|---|---|---|---|
| 1777473913 | 13.33° C | 60% | 1016.4 hPa | 0 mm | - | - | - |
| 1777472395 | 12.78° C | 60% | 1016.7 hPa | 0 mm | - | - | - |
| 1777469973 | 11.67° C | 65% | 1017.7 hPa | 0 mm | - | - | - |
| 1777469364 | 11.67° C | 65% | 1017.6 hPa | 0 mm | - | - | - |
| 1777469060 | 10.56° C | 67% | 1017.7 hPa | 0 mm | - | - | - |
| 1777468756 | 11.11° C | 67% | 1017.7 hPa | 0 mm | - | - | - |
| 1777468451 | 11.11° C | 67% | 1017.8 hPa | 0 mm | - | - | - |
| 1777468149 | 10.56° C | 68% | 1017.9 hPa | 0 mm | - | - | - |
| 1777467844 | 10.56° C | 68% | 1018 hPa | 0 mm | - | - | - |
| 1777467540 | 9.44° C | 71% | 1017.9 hPa | 0 mm | - | - | - |
| 1777467235 | 10° C | 71% | 1018.1 hPa | 0 mm | - | - | - |
| 1777466932 | 9.44° C | 71% | 1018 hPa | 0 mm | - | - | - |
| 1777466326 | 9.44° C | 71% | 1018.1 hPa | 0 mm | - | - | - |
| 1777466023 | 9.44° C | 72% | 1018.1 hPa | 0 mm | - | - | - |
| 1777465719 | 8.89° C | 73% | 1018.4 hPa | 0 mm | - | - | - |
| 1777465415 | 8.89° C | 73% | 1018.4 hPa | 0 mm | - | - | - |
| 1777465114 | 8.89° C | 75% | 1018.4 hPa | 0 mm | - | - | - |
| 1777464809 | 8.89° C | 74% | 1018.7 hPa | 0 mm | - | - | - |
| 1777464505 | 8.33° C | 75% | 1018.6 hPa | 0 mm | - | - | - |
| 1777463901 | 8.33° C | 76% | 1018.6 hPa | 0 mm | - | - | - |
| 1777463597 | 8.33° C | 76% | 1018.7 hPa | 0 mm | - | - | - |
| 1777463292 | 8.33° C | 76% | 1018.7 hPa | 0 mm | - | - | - |
| 1777462684 | 8.33° C | 77% | 1018.8 hPa | 0 mm | - | - | - |
| 1777462379 | 7.78° C | 77% | 1018.5 hPa | 0 mm | - | - | - |
| 1777462076 | 7.78° C | 78% | 1018.4 hPa | 0 mm | - | - | - |
* Rain latest hour (hover to see other rain measurements)
** Current wind speed in m/s (hover to see current wind gust speed)